Time;durP1;ratioP1;P1;durP2;ratioP2;P2;SDS_P1;SDS_P2;PMS_P1;PMS_P2;Temp;Humidity;BMP_temperature;BMP_pressure;BME280_temperature;BME280_humidity;BME280_pressure;Samples;Min_cycle;Max_cycle;Signal;HPM_P1;HPM_P2
2022/02/26 00:01:35;;;;;;;;;;;-0.50;99.90;;;-2.22;100.00;102765.06;2566170;30;137341;-40
2022/02/26 00:04:02;;;;;;;;;;;-0.30;99.90;;;-2.32;100.00;102762.88;2568477;30;137255;-40
2022/02/26 00:06:30;;;;;;;;;;;-0.40;99.90;;;-2.37;100.00;102769.41;2567773;30;137290;-40
2022/02/26 00:08:57;;;;;;;;;;;-0.40;99.90;;;-2.45;100.00;102772.47;2569061;30;138434;-40
2022/02/26 00:11:25;;;;;;;;;;;-0.40;99.90;;;-2.51;100.00;102781.69;2565718;30;137197;-40
2022/02/26 00:13:52;;;;;;;;;;;-0.50;99.90;;;-2.57;100.00;102784.66;2568800;30;137590;-40
2022/02/26 00:16:20;;;;;;;;;;;-0.60;99.90;;;-2.50;100.00;102790.56;2567887;30;136859;-40
2022/02/26 00:18:47;;;;;;;;;;;-0.60;99.90;;;-2.44;100.00;102797.41;2567796;30;137997;-40
2022/02/26 00:21:14;;;;;;;;;;;-0.50;99.90;;;-2.51;100.00;102800.38;2567326;30;136739;-40
2022/02/26 00:23:43;;;;;;;;;;;-0.50;99.90;;;-2.52;100.00;102798.66;2569197;30;138273;-40
2022/02/26 00:26:11;;;;;;;;;;;-0.50;99.90;;;-2.53;100.00;102804.06;2567999;30;137238;-40
2022/02/26 00:28:41;;;;;;;;;;;-0.50;99.90;;;-2.57;100.00;102807.84;2568934;30;138399;-40
2022/02/26 00:31:08;;;;;;;;;;;-0.60;99.90;;;-2.63;100.00;102811.72;2567872;30;137896;-40
2022/02/26 00:33:36;;;;;;;;;;;-0.60;99.90;;;-2.65;100.00;102805.59;2569831;30;137057;-40
2022/02/26 00:36:03;;;;;;;;;;;-0.60;99.90;;;-2.67;100.00;102824.34;2567220;30;137578;-40
2022/02/26 00:38:30;;;;;;;;;;;-0.60;99.90;;;-2.64;100.00;102826.03;2568152;30;137408;-41
2022/02/26 00:40:58;;;;;;;;;;;-0.60;99.90;;;-2.62;100.00;102824.97;2568219;30;138016;-40
2022/02/26 00:43:26;;;;;;;;;;;-0.70;99.90;;;-2.67;100.00;102820.81;2566087;30;137906;-40
2022/02/26 00:45:53;;;;;;;;;;;-0.60;99.90;;;-2.64;100.00;102831.38;2567827;30;137184;-40
2022/02/26 00:49:46;;;;;;;;;;;-0.70;99.90;;;-2.67;100.00;102842.19;2568708;30;138326;-40
2022/02/26 00:51:15;;;;;;;;;;;-0.70;99.90;;;-2.66;100.00;102841.25;2568276;30;136951;31
2022/02/26 00:53:43;;;;;;;;;;;-0.70;99.90;;;-2.60;100.00;102843.63;2569872;30;137418;-43
2022/02/26 06:54:04;;;;;;;;;;;-0.60;99.90;;;-2.68;100.00;103060.50;2567361;30;137817;-41
2022/02/26 06:56:33;;;;;;;;;;;-0.60;99.90;;;-2.48;100.00;103082.78;2568823;30;137281;-40
2022/02/26 06:59:00;;;;;;;;;;;-0.60;99.90;;;-2.43;100.00;103074.50;2566460;30;137672;-40
2022/02/26 07:01:28;;;;;;;;;;;-0.50;99.90;;;-2.34;100.00;103074.94;2567671;30;138317;-40
2022/02/26 07:03:55;;;;;;;;;;;-0.50;99.90;;;-2.26;100.00;103084.41;2569006;30;137147;-40
2022/02/26 07:06:26;;;;;;;;;;;-0.40;99.90;;;-2.14;100.00;103089.19;2569070;30;139087;-40
2022/02/26 07:08:54;;;;;;;;;;;-0.30;99.90;;;-2.07;100.00;103087.94;2568386;30;137838;-40
2022/02/26 07:11:21;;;;;;;;;;;-0.20;99.90;;;-1.95;100.00;103094.53;2567514;30;138384;-40
2022/02/26 07:13:48;;;;;;;;;;;-0.20;99.90;;;-1.85;100.00;103099.44;2568657;30;136767;-40
2022/02/26 07:16:16;;;;;;;;;;;-0.10;99.90;;;-1.74;100.00;103102.47;2566721;30;139546;-40
2022/02/26 07:18:43;;;;;;;;;;;0.00;99.90;;;-1.69;100.00;103108.44;2567968;30;136996;-40
2022/02/26 07:21:11;;;;;;;;;;;0.10;99.90;;;-1.61;100.00;103105.41;2568802;30;139106;-40
2022/02/26 07:23:39;;;;;;;;;;;0.20;99.90;;;-1.55;100.00;103104.22;2568311;30;137026;-40
2022/02/26 07:26:07;;;;;;;;;;;0.20;99.90;;;-1.49;100.00;103109.28;2567059;30;138466;-40
2022/02/26 07:28:34;;;;;;;;;;;0.30;99.90;;;-1.44;100.00;103109.91;2568977;30;138090;-40
2022/02/26 07:31:01;;;;;;;;;;;0.40;99.90;;;-1.38;100.00;103119.44;2568404;30;137458;-40
2022/02/26 07:33:29;;;;;;;;;;;0.40;99.90;;;-1.33;100.00;103123.63;2568226;30;138024;-40
2022/02/26 07:35:56;;;;;;;;;;;0.40;99.90;;;-1.26;100.00;103123.31;2568688;30;137305;-40
2022/02/26 07:38:24;;;;;;;;;;;0.50;99.90;;;-1.21;100.00;103121.25;2568337;30;136683;-40
2022/02/26 07:40:51;;;;;;;;;;;0.50;99.90;;;-1.15;100.00;103120.94;2569371;30;138178;-40
2022/02/26 07:43:19;;;;;;;;;;;0.60;99.90;;;-1.08;100.00;103142.94;2568702;30;137079;-40
2022/02/26 07:45:47;;;;;;;;;;;0.70;99.90;;;-1.04;100.00;103129.31;2566252;30;139014;-40
2022/02/26 07:48:14;;;;;;;;;;;0.70;99.90;;;-0.93;100.00;103131.44;2568275;30;137517;-40
2022/02/26 07:50:42;;;;;;;;;;;0.80;99.90;;;-0.91;100.00;103124.19;2567233;30;138890;-40
2022/02/26 07:53:10;;;;;;;;;;;0.90;99.90;;;-0.80;100.00;103137.00;2567257;30;137202;-40
2022/02/26 07:55:38;;;;;;;;;;;0.90;99.90;;;-0.73;100.00;103138.41;2569122;30;139088;-40
2022/02/26 07:58:06;;;;;;;;;;;1.00;99.90;;;-0.64;100.00;103141.56;2568519;30;137098;-40
2022/02/26 08:00:34;;;;;;;;;;;1.10;99.90;;;-0.60;100.00;103135.97;2569859;30;138462;-40
2022/02/26 08:03:02;;;;;;;;;;;1.10;99.90;;;-0.49;100.00;103146.13;2566807;30;137119;-40
2022/02/26 08:05:29;;;;;;;;;;;1.20;99.90;;;-0.38;100.00;103147.34;2568038;30;138244;-40
2022/02/26 08:07:58;;;;;;;;;;;1.30;99.90;;;-0.32;100.00;103138.94;2569026;30;137488;-40
2022/02/26 08:10:26;;;;;;;;;;;1.40;99.90;;;-0.24;100.00;103144.78;2567982;30;138649;-41
2022/02/26 08:12:55;;;;;;;;;;;1.40;99.90;;;-0.16;100.00;103142.53;2568810;30;137217;-41
2022/02/26 08:15:24;;;;;;;;;;;1.50;99.90;;;-0.06;100.00;103142.91;2566826;30;138206;-40
2022/02/26 08:17:56;;;;;;;;;;;1.60;99.90;;;0.06;100.00;103154.75;2569567;30;136962;-40
2022/02/26 08:20:24;;;;;;;;;;;1.70;99.90;;;0.20;100.00;103155.78;2565585;30;137278;-40
2022/02/26 08:22:54;;;;;;;;;;;1.80;99.90;;;0.28;100.00;103158.94;2566616;30;137119;-40
2022/02/26 08:25:21;;;;;;;;;;;1.90;99.90;;;0.37;100.00;103161.09;2569152;30;138637;-40
2022/02/26 08:27:49;;;;;;;;;;;2.00;99.90;;;0.46;100.00;103166.88;2567126;30;136914;-40
2022/02/26 08:30:18;;;;;;;;;;;2.10;99.90;;;0.53;100.00;103166.44;2566863;30;139348;-40
2022/02/26 08:32:46;;;;;;;;;;;2.10;99.90;;;0.60;100.00;103158.88;2568926;30;137007;-40
2022/02/26 08:35:15;;;;;;;;;;;2.20;99.90;;;0.71;100.00;103169.88;2565711;30;138804;-40
2022/02/26 08:37:46;;;;;;;;;;;2.30;99.90;;;0.84;100.00;103169.16;2566841;30;136876;-40
2022/02/26 08:40:15;;;;;;;;;;;2.40;99.90;;;0.93;100.00;103170.41;2568548;30;138254;-40
2022/02/26 08:42:46;;;;;;;;;;;2.50;99.90;;;1.00;100.00;103169.13;2568714;30;137207;-40
2022/02/26 08:45:14;;;;;;;;;;;2.60;99.90;;;1.09;100.00;103178.47;2569812;30;138350;-40
2022/02/26 08:47:42;;;;;;;;;;;2.70;99.90;;;1.20;100.00;103172.44;2567648;30;136807;-40
2022/02/26 08:50:13;;;;;;;;;;;2.80;99.90;;;1.35;100.00;103170.63;2568439;30;138264;-40
2022/02/26 08:52:40;;;;;;;;;;;2.90;99.90;;;1.42;100.00;103182.75;2567981;30;136851;-41
2022/02/26 08:55:08;;;;;;;;;;;3.00;99.90;;;1.54;100.00;103187.34;2568367;30;137945;-40
2022/02/26 08:57:36;;;;;;;;;;;3.10;99.90;;;1.63;100.00;103182.38;2567488;30;136809;-40
2022/02/26 09:00:09;;;;;;;;;;;3.20;99.90;;;1.71;100.00;103188.16;2567152;30;139091;-40
2022/02/26 09:02:37;;;;;;;;;;;3.30;99.90;;;1.76;100.00;103193.25;2568298;30;137251;-40
2022/02/26 09:05:05;;;;;;;;;;;3.30;99.90;;;1.82;100.00;103196.41;2568964;30;137022;-41
2022/02/26 09:07:32;;;;;;;;;;;3.40;99.90;;;1.82;100.00;103182.94;2568545;30;136887;-40
2022/02/26 09:09:59;;;;;;;;;;;3.40;99.90;;;1.86;100.00;103194.38;2567120;30;139256;-40
2022/02/26 09:12:27;;;;;;;;;;;3.40;99.90;;;1.89;100.00;103193.34;2568205;30;137236;-40
2022/02/26 09:14:55;;;;;;;;;;;3.50;99.90;;;1.91;100.00;103197.66;2568209;30;138441;-40
2022/02/26 09:17:24;;;;;;;;;;;3.50;99.90;;;1.96;100.00;103194.69;2569022;30;137182;-40
2022/02/26 09:19:51;;;;;;;;;;;3.50;99.90;;;1.98;100.00;103204.38;2567995;30;139281;-40
2022/02/26 09:22:19;;;;;;;;;;;3.60;99.90;;;2.10;100.00;103200.03;2567458;30;137696;-40
2022/02/26 09:24:46;;;;;;;;;;;3.70;99.90;;;2.11;100.00;103199.06;2566838;30;139143;-40
2022/02/26 09:27:14;;;;;;;;;;;3.70;99.90;;;2.16;100.00;103212.25;2568346;30;136927;-40
2022/02/26 09:29:41;;;;;;;;;;;3.70;99.90;;;2.18;100.00;103204.09;2568999;30;137525;-40
2022/02/26 09:32:09;;;;;;;;;;;3.70;99.90;;;2.22;100.00;103211.84;2567752;30;138729;-40
2022/02/26 09:34:36;;;;;;;;;;;3.80;99.90;;;2.27;100.00;103209.75;2568176;30;137660;-40
2022/02/26 09:37:04;;;;;;;;;;;3.80;99.90;;;2.28;100.00;103210.59;2568311;30;137225;-40
2022/02/26 09:39:31;;;;;;;;;;;3.90;99.90;;;2.37;100.00;103210.00;2568625;30;137286;-40
2022/02/26 09:41:59;;;;;;;;;;;3.90;99.90;;;2.43;100.00;103215.00;2567697;30;136978;-40
2022/02/26 09:44:26;;;;;;;;;;;4.00;99.90;;;2.50;100.00;103220.00;2569263;30;137436;-40
2022/02/26 09:46:56;;;;;;;;;;;4.00;99.90;;;2.54;100.00;103222.41;2566986;30;137860;-40
2022/02/26 09:49:23;;;;;;;;;;;4.10;99.90;;;2.59;100.00;103213.97;2566948;30;138232;-40
2022/02/26 09:51:54;;;;;;;;;;;4.10;99.90;;;2.67;100.00;103211.66;2567113;30;136960;-40
2022/02/26 09:54:22;;;;;;;;;;;4.20;99.90;;;2.69;100.00;103217.81;2569541;30;138385;-41
2022/02/26 09:56:49;;;;;;;;;;;4.30;99.90;;;2.75;100.00;103221.06;2568327;30;136634;-40
2022/02/26 09:59:17;;;;;;;;;;;4.30;99.90;;;2.79;100.00;103226.16;2566548;30;138269;-40
2022/02/26 10:01:56;;;;;;;;;;;4.30;99.90;;;2.89;100.00;103226.41;2568054;30;137452;-40
2022/02/26 10:04:25;;;;;;;;;;;4.40;99.90;;;2.90;100.00;103221.88;2568253;30;137389;-40
2022/02/26 10:07:14;;;;;;;;;;;4.40;99.90;;;2.97;100.00;103229.47;2565303;30;139822;-40
2022/02/26 10:09:44;;;;;;;;;;;4.50;99.90;;;3.08;100.00;103226.03;2568483;30;137964;-40
2022/02/26 10:12:33;;;;;;;;;;;4.60;99.90;;;3.12;100.00;103222.16;2567700;30;137141;-40
2022/02/26 10:15:04;;;;;;;;;;;4.70;99.90;;;3.27;100.00;103220.25;2568232;30;138279;-40
2022/02/26 10:17:36;;;;;;;;;;;4.70;99.90;;;3.39;100.00;103220.38;2567388;30;137210;-40
2022/02/26 10:20:14;;;;;;;;;;;4.80;99.90;;;3.43;100.00;103224.56;2567842;30;138437;-40
2022/02/26 10:22:52;;;;;;;;;;;4.90;99.90;;;3.58;100.00;103222.63;2567643;30;136719;-40
2022/02/26 10:25:26;;;;;;;;;;;5.00;99.90;;;3.60;100.00;103226.97;2567937;30;138199;-40
2022/02/26 10:27:57;;;;;;;;;;;5.10;99.90;;;3.77;100.00;103224.06;2568087;30;137142;-40
2022/02/26 10:30:29;;;;;;;;;;;5.30;99.90;;;3.86;100.00;103221.56;2566338;30;138224;-40
2022/02/26 10:33:13;;;;;;;;;;;5.30;99.90;;;3.91;100.00;103223.06;2568443;30;137243;-40
2022/02/26 10:35:50;;;;;;;;;;;5.40;99.90;;;3.97;100.00;103222.63;2567784;30;139295;-40
2022/02/26 10:38:30;;;;;;;;;;;5.40;99.90;;;4.04;100.00;103223.94;2567877;30;137400;-40
2022/02/26 10:41:08;;;;;;;;;;;5.50;99.90;;;4.10;100.00;103220.78;2568567;30;137539;-40
2022/02/26 10:43:46;;;;;;;;;;;5.60;99.90;;;4.21;100.00;103224.53;2566726;30;137347;-40
2022/02/26 10:46:30;;;;;;;;;;;5.70;99.90;;;4.27;100.00;103232.22;2568589;30;137292;-40
2022/02/26 10:49:12;;;;;;;;;;;5.70;99.90;;;4.32;100.00;103227.34;2568514;30;136835;-41
2022/02/26 10:51:42;;;;;;;;;;;5.80;99.90;;;4.35;100.00;103224.41;2569099;30;138164;-41
2022/02/26 10:54:25;;;;;;;;;;;5.80;99.90;;;4.47;100.00;103225.34;2567186;30;138009;-40
2022/02/26 10:57:00;;;;;;;;;;;5.90;99.90;;;4.58;100.00;103230.81;2568579;30;138357;-40
2022/02/26 10:59:29;;;;;;;;;;;6.00;99.90;;;4.76;100.00;103225.03;2568367;30;136967;-40
2022/02/26 11:02:02;;;;;;;;;;;6.10;99.90;;;4.95;100.00;103227.19;2568638;30;139097;-41
2022/02/26 11:04:30;;;;;;;;;;;6.30;99.90;;;5.15;100.00;103224.81;2567926;30;137294;-40
2022/02/26 11:06:59;;;;;;;;;;;6.40;99.90;;;5.32;100.00;103215.41;2568285;30;137908;-40
2022/02/26 11:09:27;;;;;;;;;;;6.60;99.90;;;5.26;100.00;103211.31;2569333;30;137051;-40
2022/02/26 11:11:57;;;;;;;;;;;6.60;99.90;;;5.31;100.00;103217.25;2568205;30;139236;-40
2022/02/26 11:14:26;;;;;;;;;;;6.60;99.90;;;5.09;98.52;103198.25;2567738;30;137889;-41
2022/02/26 11:16:59;;;;;;;;;;;6.60;99.90;;;5.03;98.86;103205.81;2569195;30;138322;-40
2022/02/26 11:19:29;;;;;;;;;;;6.50;99.90;;;5.25;100.00;103204.19;2569136;30;137160;-40
2022/02/26 11:21:59;;;;;;;;;;;6.60;99.90;;;5.35;97.59;103204.31;2566703;30;138637;-40
2022/02/26 11:24:31;;;;;;;;;;;6.70;99.90;;;5.51;98.62;103201.28;2567487;30;136805;-40
2022/02/26 11:26:58;;;;;;;;;;;6.80;99.90;;;5.60;97.54;103200.56;2569327;30;137131;-40
2022/02/26 11:29:26;;;;;;;;;;;6.90;99.90;;;5.73;96.89;103200.47;2567856;30;137168;-40
2022/02/26 11:32:05;;;;;;;;;;;7.00;99.90;;;5.55;92.86;103199.22;2568549;30;137264;-41
2022/02/26 11:34:35;;;;;;;;;;;7.00;99.90;;;5.52;95.06;103192.16;2568964;30;136997;-40
2022/02/26 11:37:13;;;;;;;;;;;7.00;99.90;;;5.65;96.43;103194.78;2568238;30;137154;-40
2022/02/26 11:39:47;;;;;;;;;;;7.00;99.90;;;5.69;96.50;103180.00;2567175;30;137619;-40
2022/02/26 11:42:23;;;;;;;;;;;7.10;99.90;;;5.78;97.15;103191.94;2568176;30;137264;-41
2022/02/26 11:44:57;;;;;;;;;;;7.10;99.90;;;5.69;94.62;103187.28;2568055;30;137314;-40
2022/02/26 11:47:42;;;;;;;;;;;7.20;99.90;;;5.73;94.72;103177.91;2567840;30;139136;-40
2022/02/26 11:50:11;;;;;;;;;;;7.20;99.90;;;5.92;95.80;103177.28;2568054;30;137026;-40
2022/02/26 11:52:49;;;;;;;;;;;7.30;99.90;;;6.09;94.06;103181.38;2568076;30;139231;-41
2022/02/26 11:55:38;;;;;;;;;;;7.40;99.90;;;6.15;91.41;103174.59;2568365;30;137766;-40
2022/02/26 11:58:11;;;;;;;;;;;7.50;99.90;;;6.25;92.43;103163.88;2568683;30;138276;-40
2022/02/26 12:00:45;;;;;;;;;;;7.50;99.90;;;6.14;91.33;103165.63;2568381;30;137886;-40
2022/02/26 12:03:30;;;;;;;;;;;7.60;99.90;;;6.02;90.55;103163.91;2568880;30;137678;-41
2022/02/26 12:06:10;;;;;;;;;;;7.50;99.90;;;6.10;89.89;103157.84;2567765;30;137233;-41
2022/02/26 12:09:07;;;;;;;;;;;7.50;99.90;;;6.25;92.01;103162.03;2565866;30;139575;-40
2022/02/26 12:11:45;;;;;;;;;;;7.60;99.90;;;6.19;91.31;103166.09;2567857;30;137321;-40
2022/02/26 12:14:26;;;;;;;;;;;7.60;99.90;;;6.11;88.76;103162.28;2569097;30;136734;-40
2022/02/26 12:17:08;;;;;;;;;;;7.60;99.90;;;6.03;88.68;103155.66;2567923;30;137052;-40
2022/02/26 12:19:51;;;;;;;;;;;7.50;99.90;;;6.00;89.17;103153.16;2567823;30;138256;-40
2022/02/26 12:22:19;;;;;;;;;;;7.50;99.90;;;5.98;88.47;103146.13;2566405;30;137236;-40
2022/02/26 12:24:53;;;;;;;;;;;7.40;99.90;;;5.94;86.20;103145.50;2568394;30;139027;-40
2022/02/26 12:27:34;;;;;;;;;;;7.50;99.90;;;5.94;87.32;103140.09;2568111;30;137849;-40
2022/02/26 12:30:11;;;;;;;;;;;7.40;99.90;;;5.88;86.79;103138.75;2567854;30;138224;-41
2022/02/26 12:33:02;;;;;;;;;;;7.40;99.90;;;5.66;85.40;103139.63;2565994;30;137602;-40
2022/02/26 12:35:35;;;;;;;;;;;7.30;99.90;;;5.46;87.43;103130.38;2567985;30;138171;-40
2022/02/26 12:38:29;;;;;;;;;;;7.20;99.90;;;5.35;86.51;103133.94;2568157;30;136856;-40
2022/02/26 12:40:57;;;;;;;;;;;7.00;99.90;;;5.26;88.45;103130.09;2566776;30;137167;-40
2022/02/26 12:43:29;;;;;;;;;;;6.90;99.90;;;5.24;88.35;103129.38;2568282;30;136675;-40
2022/02/26 12:45:57;;;;;;;;;;;6.80;99.90;;;5.24;82.84;103123.94;2567976;30;137621;-40
2022/02/26 12:48:24;;;;;;;;;;;6.80;99.90;;;5.22;85.82;103122.38;2567937;30;137125;-40
2022/02/26 12:50:53;;;;;;;;;;;6.80;99.90;;;5.18;86.33;103116.31;2567210;30;138506;-40
2022/02/26 12:53:21;;;;;;;;;;;6.80;99.90;;;5.29;85.69;103110.91;2576188;30;138037;-39
2022/02/26 12:55:48;;;;;;;;;;;6.80;99.90;;;5.32;84.83;103113.41;2569381;30;138932;-39
2022/02/26 12:58:16;;;;;;;;;;;6.80;99.90;;;5.33;85.57;103114.25;2569101;30;137289;-38
2022/02/26 13:00:48;;;;;;;;;;;6.80;99.90;;;5.47;83.26;103114.03;2569281;30;138552;-42
2022/02/26 13:03:21;;;;;;;;;;;6.90;99.90;;;5.61;79.62;103107.50;2569367;30;137343;-41
2022/02/26 13:05:49;;;;;;;;;;;7.00;99.90;;;5.73;79.38;103096.66;2569498;30;138272;-41
2022/02/26 13:08:17;;;;;;;;;;;7.10;99.90;;;5.92;79.58;103101.44;2570474;30;136920;-41
2022/02/26 13:10:47;;;;;;;;;;;7.30;99.90;;;6.13;77.89;103090.72;2570232;30;138258;-41
2022/02/26 13:13:17;;;;;;;;;;;7.40;99.90;;;6.37;74.91;103092.38;2568601;30;136877;-41
2022/02/26 13:15:47;;;;;;;;;;;7.60;99.90;;;6.50;72.12;103081.34;2568532;30;137789;-41
2022/02/26 13:18:16;;;;;;;;;;;7.80;99.90;;;6.58;70.43;103086.97;2570214;30;136808;-41
2022/02/26 13:20:45;;;;;;;;;;;8.00;99.90;;;6.73;70.54;103086.63;2567740;30;138436;-41
2022/02/26 13:23:15;;;;;;;;;;;8.10;99.90;;;6.89;72.12;103088.88;2570079;30;137826;-41
2022/02/26 13:25:44;;;;;;;;;;;8.20;99.90;;;6.99;73.55;103087.13;2568163;30;138139;-41
2022/02/26 13:28:16;;;;;;;;;;;8.30;99.90;;;7.07;72.20;103072.88;2570415;30;136620;-41
2022/02/26 13:30:48;;;;;;;;;;;8.40;99.90;;;7.13;70.22;103063.31;2569381;30;137350;-41
2022/02/26 13:33:22;;;;;;;;;;;8.50;99.90;;;7.13;73.36;103064.19;2570560;30;137870;-41
2022/02/26 13:35:50;;;;;;;;;;;8.60;99.90;;;7.22;70.88;103059.81;2569469;30;138152;-41
2022/02/26 13:38:20;;;;;;;;;;;8.60;99.90;;;7.23;67.32;103049.81;2566462;30;137748;-41
2022/02/26 13:40:50;;;;;;;;;;;8.70;99.90;;;7.25;64.65;103048.69;2567942;30;137426;-41
2022/02/26 13:43:20;;;;;;;;;;;8.60;99.90;;;7.36;69.81;103044.13;2565933;30;137193;-41
2022/02/26 13:45:51;;;;;;;;;;;8.70;99.90;;;7.41;66.80;103042.75;2570088;30;136634;-41
2022/02/26 13:48:20;;;;;;;;;;;8.80;99.90;;;7.48;65.08;103045.78;2571565;30;136721;-40
2022/02/26 13:50:53;;;;;;;;;;;8.80;99.90;;;7.63;67.56;103038.94;2568976;30;138187;-41
2022/02/26 13:53:23;;;;;;;;;;;8.90;99.90;;;7.80;68.62;103038.41;2567370;30;137402;-41
2022/02/26 13:56:00;;;;;;;;;;;9.00;99.90;;;7.83;64.03;103036.28;2567396;30;137916;-41
2022/02/26 13:58:33;;;;;;;;;;;9.10;99.90;;;7.87;63.45;103032.28;2569168;30;136906;-41
2022/02/26 14:01:03;;;;;;;;;;;9.20;99.90;;;7.92;65.17;103029.16;2569317;30;137325;-42
2022/02/26 14:03:35;;;;;;;;;;;9.20;99.90;;;7.89;65.10;103030.28;2568985;30;137251;-41
2022/02/26 14:06:06;;;;;;;;;;;9.20;99.90;;;7.87;63.71;103015.97;2567978;30;139125;-41
2022/02/26 14:08:38;;;;;;;;;;;9.30;99.90;;;7.96;64.60;103024.31;2570683;30;136784;-41
2022/02/26 14:11:06;;;;;;;;;;;9.30;99.90;;;8.02;62.66;103021.00;2570461;30;138309;-41
2022/02/26 14:13:34;;;;;;;;;;;9.40;99.90;;;7.97;62.01;103020.59;2569797;30;137925;-42
2022/02/26 14:16:07;;;;;;;;;;;9.30;99.90;;;8.03;63.94;103014.56;2567559;30;138412;-41
2022/02/26 14:18:35;;;;;;;;;;;9.30;99.90;;;7.91;61.26;103006.53;2571361;30;137132;-41
2022/02/26 14:21:06;;;;;;;;;;;9.40;99.90;;;7.89;59.83;103010.41;2570654;30;137262;-41
2022/02/26 14:23:38;;;;;;;;;;;9.30;99.90;;;7.80;59.98;103009.38;2570631;30;137685;-41
2022/02/26 14:26:06;;;;;;;;;;;9.30;99.90;;;7.43;61.34;103000.00;2569825;30;138236;-41
2022/02/26 14:28:41;;;;;;;;;;;9.20;99.90;;;7.69;65.33;103006.78;2570227;30;137159;-41
2022/02/26 14:31:11;;;;;;;;;;;9.20;99.90;;;7.80;65.36;102997.66;2567500;30;139224;-41
2022/02/26 14:33:40;;;;;;;;;;;9.20;99.90;;;7.90;65.18;102991.22;2570690;30;138007;-41
2022/02/26 14:36:07;;;;;;;;;;;9.20;99.90;;;7.93;65.75;102992.81;2569076;30;138231;-39
2022/02/26 14:38:35;;;;;;;;;;;9.30;99.90;;;7.95;61.63;102988.09;2571770;30;137371;-38
2022/02/26 14:41:05;;;;;;;;;;;9.30;99.90;;;7.91;61.25;102983.94;2568866;30;139079;-38
2022/02/26 14:43:34;;;;;;;;;;;9.30;99.90;;;7.98;65.50;102995.97;2569913;30;137319;-39
2022/02/26 14:46:02;;;;;;;;;;;9.30;99.90;;;8.04;64.17;102984.50;2570622;30;137377;-39
2022/02/26 14:48:30;;;;;;;;;;;9.40;99.90;;;7.98;63.03;102989.69;2570975;30;137735;-39
2022/02/26 14:50:57;;;;;;;;;;;9.30;99.90;;;8.02;62.93;102985.66;2568137;30;138757;-39
2022/02/26 14:53:25;;;;;;;;;;;9.30;99.90;;;8.04;64.26;102986.38;2568991;30;137185;-40
2022/02/26 14:55:52;;;;;;;;;;;9.40;99.90;;;8.05;65.06;102980.78;2570004;30;139112;-39
2022/02/26 14:58:20;;;;;;;;;;;9.40;99.90;;;8.03;61.30;102969.19;2567914;30;137650;-39
2022/02/26 15:00:47;;;;;;;;;;;9.40;99.90;;;8.02;61.67;102972.06;2569932;30;137297;-41
2022/02/26 15:03:14;;;;;;;;;;;9.40;99.90;;;7.95;64.16;102963.63;2569249;30;137889;-41
2022/02/26 15:05:42;;;;;;;;;;;9.40;99.90;;;7.86;60.88;102965.34;2568306;30;137724;-42
2022/02/26 15:08:09;;;;;;;;;;;9.30;99.90;;;7.82;61.67;102957.59;2570587;30;138740;-41
2022/02/26 15:10:37;;;;;;;;;;;9.30;99.90;;;7.75;62.36;102952.72;2569892;30;138202;-41
2022/02/26 15:13:05;;;;;;;;;;;9.20;99.90;;;7.74;64.37;102959.16;2570562;30;137858;-41
2022/02/26 15:15:32;;;;;;;;;;;9.20;99.90;;;7.77;60.92;102956.16;2570541;30;138575;-42
2022/02/26 15:17:59;;;;;;;;;;;9.20;99.90;;;7.71;63.20;102953.19;2570845;30;137063;-41
2022/02/26 15:20:27;;;;;;;;;;;9.20;99.90;;;7.58;64.53;102938.00;2569533;30;138564;-41
2022/02/26 15:22:55;;;;;;;;;;;9.10;99.90;;;7.65;63.07;102940.13;2570118;30;137010;-41
2022/02/26 15:25:22;;;;;;;;;;;9.10;99.90;;;7.61;63.00;102942.28;2567608;30;139229;-41
2022/02/26 15:27:49;;;;;;;;;;;9.10;99.90;;;7.56;63.34;102937.28;2570333;30;136853;-41
2022/02/26 15:30:17;;;;;;;;;;;9.00;99.90;;;7.48;62.55;102935.25;2570727;30;138906;-40
2022/02/26 15:32:47;;;;;;;;;;;9.00;99.90;;;7.37;62.39;102927.25;2569348;30;139420;-41
2022/02/26 15:35:15;;;;;;;;;;;8.90;99.90;;;7.34;64.73;102939.22;2572138;30;137417;-41
2022/02/26 15:37:42;;;;;;;;;;;8.80;99.90;;;7.32;63.19;102932.22;2569056;30;137886;-41
2022/02/26 15:40:10;;;;;;;;;;;8.80;99.90;;;7.20;63.64;102926.06;2569526;30;137371;-41
2022/02/26 15:42:38;;;;;;;;;;;8.70;99.90;;;7.17;64.01;102931.75;2567405;30;137691;-41
2022/02/26 15:45:06;;;;;;;;;;;8.70;99.90;;;7.08;63.36;102932.56;2569996;30;137443;-42
2022/02/26 15:47:34;;;;;;;;;;;8.60;99.90;;;7.03;65.63;102930.28;2570450;30;136925;-41
2022/02/26 15:50:01;;;;;;;;;;;8.50;99.90;;;7.02;63.12;102928.53;2568573;30;138272;-43
2022/02/26 15:52:29;;;;;;;;;;;8.50;99.90;;;6.88;62.37;102925.22;2568946;30;136608;-41
2022/02/26 15:54:56;;;;;;;;;;;8.40;99.90;;;6.80;61.86;102916.91;2570247;30;137157;-41
2022/02/26 15:57:23;;;;;;;;;;;8.30;99.90;;;6.74;66.50;102915.59;2570558;30;136952;-41
2022/02/26 15:59:51;;;;;;;;;;;8.30;99.90;;;6.72;64.92;102914.00;2569201;30;138196;-41
2022/02/26 16:02:19;;;;;;;;;;;8.30;99.90;;;6.68;66.25;102907.13;2569333;30;137402;-41
2022/02/26 16:04:46;;;;;;;;;;;8.20;99.90;;;6.59;66.17;102909.66;2570295;30;138213;-41
2022/02/26 16:07:14;;;;;;;;;;;8.20;99.90;;;6.44;66.21;102908.28;2567697;30;137390;-41
2022/02/26 16:09:41;;;;;;;;;;;8.10;99.90;;;6.27;68.11;102907.94;2570306;30;137793;-41
2022/02/26 16:12:09;;;;;;;;;;;7.90;99.90;;;6.18;68.35;102897.84;2569388;30;137999;-41
2022/02/26 16:14:37;;;;;;;;;;;7.80;99.90;;;6.11;68.88;102899.38;2569381;30;138529;-41
2022/02/26 16:17:06;;;;;;;;;;;7.70;99.90;;;6.03;70.87;102900.03;2570939;30;137393;-40
2022/02/26 16:19:33;;;;;;;;;;;7.60;99.90;;;5.96;70.04;102905.09;2570688;30;138011;-41
2022/02/26 16:22:01;;;;;;;;;;;7.60;99.90;;;5.95;71.42;102910.66;2568290;30;137316;-41
2022/02/26 16:24:29;;;;;;;;;;;7.50;99.90;;;5.86;71.66;102910.44;2570088;30;138320;-41
2022/02/26 16:26:57;;;;;;;;;;;7.50;99.90;;;5.86;72.46;102909.56;2570452;30;136815;-41
2022/02/26 16:29:24;;;;;;;;;;;7.50;99.90;;;5.76;71.54;102910.38;2567404;30;138689;-41
2022/02/26 16:31:51;;;;;;;;;;;7.40;99.90;;;5.63;71.97;102912.38;2569077;30;139971;-42
2022/02/26 16:34:19;;;;;;;;;;;7.30;99.90;;;5.46;72.68;102895.69;2571561;30;138081;-42
2022/02/26 16:36:48;;;;;;;;;;;7.20;99.90;;;5.42;72.15;102912.31;2569405;30;136783;-41
2022/02/26 16:39:16;;;;;;;;;;;7.10;99.90;;;5.38;71.85;102902.75;2568933;30;139022;-41
2022/02/26 16:41:44;;;;;;;;;;;7.10;99.90;;;5.29;72.41;102907.91;2567630;30;138361;-41
2022/02/26 16:44:11;;;;;;;;;;;7.00;99.90;;;5.24;75.47;102909.28;2572973;30;138266;-41
2022/02/26 16:46:38;;;;;;;;;;;6.90;99.90;;;5.09;75.07;102912.25;2569670;30;138087;-42
2022/02/26 16:49:07;;;;;;;;;;;6.80;99.90;;;4.96;75.56;102909.69;2567644;30;139294;-41
2022/02/26 16:51:34;;;;;;;;;;;6.70;99.90;;;4.84;75.41;102911.53;2570375;30;137063;-41
2022/02/26 16:54:03;;;;;;;;;;;6.60;99.90;;;4.75;76.67;102909.56;2571528;30;138399;-41
2022/02/26 16:56:30;;;;;;;;;;;6.50;99.90;;;4.66;77.09;102913.03;2567445;30;137237;-41
2022/02/26 16:58:58;;;;;;;;;;;6.40;99.90;;;4.53;78.06;102916.69;2570863;30;137322;-41
2022/02/26 17:01:26;;;;;;;;;;;6.30;99.90;;;4.42;78.64;102914.81;2568856;30;137328;-42
2022/02/26 17:03:54;;;;;;;;;;;6.20;99.90;;;4.31;79.14;102920.22;2566150;30;139173;-41
2022/02/26 17:06:21;;;;;;;;;;;6.10;99.90;;;4.20;79.43;102921.03;2570706;30;137025;-41
2022/02/26 17:08:49;;;;;;;;;;;6.00;99.90;;;4.08;80.34;102925.56;2570155;30;139047;-41
2022/02/26 17:11:16;;;;;;;;;;;5.90;99.90;;;3.95;81.05;102922.94;2568087;30;137120;-41
2022/02/26 17:13:44;;;;;;;;;;;5.70;99.90;;;3.81;81.91;102932.09;2569267;30;139365;-41
2022/02/26 17:16:14;;;;;;;;;;;5.60;99.90;;;3.67;82.15;102930.41;2569274;30;137290;-41
2022/02/26 17:18:41;;;;;;;;;;;5.50;99.90;;;3.52;83.41;102931.56;2566133;30;138131;-41
2022/02/26 17:21:09;;;;;;;;;;;5.40;99.90;;;3.37;84.30;102931.72;2570135;30;137026;-41
2022/02/26 17:23:43;;;;;;;;;;;5.20;99.90;;;3.28;85.08;102937.78;2569840;30;137385;-41